Albert, KS

8:54 AM CDT on August 01, 2014 (GMT -0500)
Eisenhower School Area (KKSGREAT7) Elev 1860 ft | 38.36 °N, 98.79 °W | Change Station

Current weather conditions updated 11 minutes ago

Clear
Clear
69.3 °F
Feels Like 69.3 °F
N
0.0
Wind Variable Wind from WNW
Gusts 8.0 mph

Today is forecast to be Warmer than yesterday.

Today
High -- | Low -- °F
--% Chance of Precip.
Yesterday
High -- | Low -- °F
Precip. -- in
6:38 AM 8:46 PM
Waxing Crescent, 26% visible
Pressure 30.09 in
Visibility 10.0 miles
Clouds Clear
Dew Point 62 °F
Humidity 78%
Rainfall 0.00 in
Snow Depth Not available.
UV 2 out of 12
Pollen 7.30 out of 12
Air Quality Not available.
Flu Activity Not available.
METAR KHYS 011335Z 32005KT 10SM CLR 20/13 A3009 RMK AO1

More Conditions Fewer Conditions

Pressure 30.09 in
Visibility 10.0 miles
Clouds Clear
Dew Point 62 °F
Humidity 78%
Rainfall 0.00 in
Snow Depth Not available.
UV 2 out of 12
Pollen 7.30 out of 12
Air Quality Not available.
Flu Activity Not available.
METAR KHYS 011335Z 32005KT 10SM CLR 20/13 A3009 RMK AO1

More Conditions Fewer Conditions

10-Day Weather Forecast

Almanac

Astronomy

Aug. 01, 2014 Rise Set
Actual Time 6:38 AM CDT 8:46 PM CDT
Civil Twilight 6:08 AM CDT 9:15 PM CDT
Nautical Twilight 5:32 AM CDT 9:51 PM CDT
Astronomical Twilight 4:53 AM CDT 10:30 PM CDT
Moon 11:58 AM CDT 11:36 PM CDT
Length of Visible Light 15h 06m
Length of Day
14h 08m
Tomorrow will be 1m 53s shorter.
Waxing Crescent, 26% of the Moon is Illuminated
Today
Waxing Crescent
Aug 3
First Quarter
Aug 10
Full
Aug 17
Last Quarter
Aug 25
New

Today's Extremes

State Highs State Lows

Community

WunderPhotos

Upload Photos

1,739,557 photos uploaded!

Nearby

Snow Depth

Station Depth Elevation
No new snow has been reported.

Earthquake Activity

City Distance Mag. Time & Date
Medford, Oklahoma 130 miles 2.9 3:39 PM CDT
2014-07-27
Caldwell, Kansas 113 miles 3.4 5:57 AM CDT
2014-07-26
Minimum magnitude displayed is 2.5.

Coastal Water Temperatures

Place Temperature
No Stations Reporting

Nearby Weather Stations

Station Location Temp. Dew Point Humidity Wind Precip. Elev Updated Type
Eisenhower School Area, Great Bend, KS 69.3 °F 62 °F 78% WNW  at  0.0 mph 0.00 in / hr 1860 ft 8:42 AM CDT Normal
HADS ARKANSAS RIVER AT GREAT BEND KS, Great Bend, KS 65 °F - - North  at  - 0.00 in / hr 1850 ft 7:30 AM CDT MADIS
Ellinwood High School, Ellinwood, KS 69.6 °F 61 °F 74% West  at  2.9 mph 0.00 in / hr 1811 ft 8:54 AM CDT Rapid Fire

Show More Stations Show Fewer Stations